Latest Coastal Weather Observations for Rundle Island

IDQ60701

Issued at 2:52 am EST Friday 5 March 2021 (issued every 10 minutes, with the page automatically refreshed every 10 minutes)

About coastal observations | Map of coastal stations | Coastal observations for QLD | Marine services | Other Formats
Station Details ID: 039322 Name: RUNDLE ISLAND Lat: -23.53 Lon: 151.28 Height: 19.8 m
Data from the previous 72 hours. | See also: Recent months at Rundle Island
Date/Time
EST
Wind Sea
Height
m
Swell Vis
km
Cloud Weather Temp
°C
Press
MSL
hPa
Rain since
9am
mm
Dir  Spd
kts
Gust
kts
Height
m
Period
s
Dir
05/02:30am SE 18 21 - - - - - - - 25.9 1005.9 -
05/02:00am SE 21 25 - - - - - - - 25.6 1006.1 -
05/01:30am ESE 22 25 - - - - - - - 25.7 1006.3 -
05/01:00am SE 22 25 - - - - - - - 26.0 1006.4 -
05/12:30am ESE 22 26 - - - - - - - 25.8 1006.8 -
05/12:00am ESE 22 25 - - - - - - - 25.9 1007.1 -
 
Date/Time
EST
Wind Sea
Height
m
Swell Vis
km
Cloud Weather Temp
°C
Press
MSL
hPa
Rain since
9am
mm
Dir  Spd
kts
Gust
kts
Height
m
Period
s
Dir
04/11:30pm ESE 23 26 - - - - - - - 26.2 1007.2 -
04/11:00pm ESE 23 26 - - - - - - - 26.1 1007.4 -
04/10:30pm ESE 24 28 - - - - - - - 26.3 1007.6 -
04/10:00pm ESE 25 29 - - - - - - - 26.3 1007.5 -
04/09:30pm ESE 26 30 - - - - - - - 26.3 1007.4 -
04/09:00pm ESE 26 31 - - - - - - - 26.3 1007.4 -
04/08:30pm ESE 26 32 - - - - - - - 26.4 1007.2 -
04/08:00pm ESE 29 32 - - - - - - - 26.3 1006.6 -
04/07:30pm ESE 28 32 - - - - - - - 26.3 1006.5 -
04/07:00pm ESE 27 32 - - - - - - - 26.4 1006.5 -
04/06:30pm ESE 26 31 - - - - - - - 26.4 1006.4 -
04/06:00pm ESE 27 32 - - - - - - - 26.4 1006.2 -
04/05:30pm ESE 25 28 - - - - - - - 26.3 1006.1 -
04/05:00pm ESE 26 29 - - - - - - - 26.3 1005.8 -
04/04:30pm ESE 25 29 - - - - - - - 26.6 1005.8 -
04/04:00pm ESE 25 29 - - - - - - - 26.6 1005.5 -
04/03:30pm ESE 27 31 - - - - - - - 26.4 1005.5 -
04/03:00pm ESE 25 28 - - - - - - - 26.6 1005.9 -
04/02:30pm SE 25 28 - - - - - - - 26.6 1005.9 -
04/02:00pm ESE 25 28 - - - - - - - 26.5 1005.9 -
04/01:30pm ESE 23 29 - - - - - - - 26.6 1006.3 -
04/01:00pm ESE 24 27 - - - - - - - 26.5 1006.7 -
04/12:30pm ESE 23 27 - - - - - - - 26.4 1007.0 -
04/12:00pm ESE 24 28 - - - - - - - 26.4 1006.9 -
04/11:30am ESE 24 28 - - - - - - - 26.6 1007.2 -
04/11:00am ESE 24 27 - - - - - - - 26.5 1007.5 -
04/10:30am ESE 24 28 - - - - - - - 26.6 1007.5 -
04/10:00am ESE 24 28 - - - - - - - 26.7 1007.6 -
04/09:30am ESE 25 28 - - - - - - - 26.4 1007.5 -
04/09:00am ESE 25 29 - - - - - - - 26.4 1007.6 -
04/08:30am ESE 26 31 - - - - - - - 26.6 1007.2 -
04/08:00am ESE 27 31 - - - - - - - 26.4 1007.0 -
04/07:30am SE 27 33 - - - - - - - 26.6 1006.5 -
04/07:00am SE 24 29 - - - - - - - 24.7 1006.6 -
04/06:39am SSE 23 35 - - - - - - - 24.3 1006.1 -
04/06:30am SE 23 30 - - - - - - - 24.5 1006.4 -
04/06:00am SSE 25 29 - - - - - - - 24.2 1005.8 -
04/05:30am S 25 32 - - - - - - - 24.4 1005.7 -
04/05:00am S 21 25 - - - - - - - 24.1 1005.5 -
04/04:55am SSE 19 25 - - - - - - - 24.4 1005.3 -
04/04:30am ESE 17 20 - - - - - - - 26.6 1005.6 -
04/04:00am E 18 22 - - - - - - - 24.6 1005.4 -
04/03:30am E 18 24 - - - - - - - 24.0 1005.4 -
04/03:24am ESE 18 23 - - - - - - - 24.4 1005.4 -
04/03:17am SE 21 25 - - - - - - - 24.2 1005.3 -
04/03:00am E 18 20 - - - - - - - 26.8 1005.2 -
04/02:30am E 17 19 - - - - - - - 26.7 1005.2 -
04/02:00am ESE 16 19 - - - - - - - 26.7 1005.6 -
04/01:30am ESE 20 24 - - - - - - - 27.0 1005.6 -
04/01:00am E 18 22 - - - - - - - 26.9 1006.0 -
04/12:30am ESE 18 20 - - - - - - - 27.0 1006.3 -
04/12:00am ESE 19 24 - - - - - - - 27.0 1006.5 -
 
Date/Time
EST
Wind Sea
Height
m
Swell Vis
km
Cloud Weather Temp
°C
Press
MSL
hPa
Rain since
9am
mm
Dir  Spd
kts
Gust
kts
Height
m
Period
s
Dir
03/11:30pm ESE 19 22 - - - - - - - 26.9 1006.7 -
03/11:00pm ESE 18 20 - - - - - - - 26.9 1007.0 -
03/10:30pm ESE 20 22 - - - - - - - 27.0 1006.9 -
03/10:00pm ESE 19 22 - - - - - - - 26.9 1006.9 -
03/09:30pm ESE 18 20 - - - - - - - 27.1 1007.3 -
03/09:00pm ESE 17 19 - - - - - - - 27.0 1007.2 -
03/08:30pm ESE 17 20 - - - - - - - 27.0 1006.9 -
03/08:00pm ESE 17 19 - - - - - - - 27.1 1006.9 -
03/07:30pm E 19 21 - - - - - - - 27.1 1006.6 -
03/07:00pm E 18 20 - - - - - - - 27.1 1006.5 -
03/06:30pm E 18 20 - - - - - - - 27.1 1006.0 -
03/06:00pm E 18 21 - - - - - - - 27.2 1005.5 -
03/05:30pm E 19 22 - - - - - - - 27.0 1005.3 -
03/05:00pm E 20 21 - - - - - - - 27.1 1005.1 -
03/04:30pm E 20 23 - - - - - - - 27.0 1005.0 -
03/04:00pm E 19 22 - - - - - - - 27.1 1005.1 -
03/03:30pm E 18 21 - - - - - - - 27.0 1005.2 -
03/03:00pm E 17 19 - - - - - - - 27.0 1005.4 -
03/02:30pm ESE 15 17 - - - - - - - 27.3 1005.9 -
03/02:00pm E 16 18 - - - - - - - 27.0 1006.2 -
03/01:30pm ESE 16 18 - - - - - - - 27.0 1006.7 -
03/01:00pm ESE 14 16 - - - - - - - 27.0 1007.0 -
03/12:30pm ESE 14 16 - - - - - - - 27.1 1007.4 -
03/12:00pm SE 14 16 - - - - - - - 27.2 1007.9 -
03/11:30am SE 14 16 - - - - - - - 26.9 1008.2 -
03/11:00am SE 14 16 - - - - - - - 27.1 1008.4 -
03/10:30am SSE 14 16 - - - - - - - 26.7 1008.7 -
03/10:00am SSE 14 16 - - - - - - - 26.6 1008.9 -
03/09:30am SSE 13 15 - - - - - - - 26.7 1008.9 -
03/09:00am SE 14 17 - - - - - - - 26.2 1008.9 -
03/08:30am SE 19 21 - - - - - - - 26.0 1008.7 -
03/08:00am SSE 16 18 - - - - - - - 26.3 1008.5 -
03/07:30am SSE 16 18 - - - - - - - 26.3 1008.0 -
03/07:00am SE 14 17 - - - - - - - 26.3 1007.9 -
03/06:30am SE 13 14 - - - - - - - 26.6 1007.8 -
03/06:00am ESE 13 15 - - - - - - - 26.6 1007.5 -
03/05:30am ESE 13 14 - - - - - - - 26.7 1007.2 -
03/05:00am ESE 13 14 - - - - - - - 26.6 1007.0 -
03/04:30am ESE 14 15 - - - - - - - 26.6 1006.9 -
03/04:00am ESE 12 14 - - - - - - - 26.9 1006.7 -
03/03:30am ESE 13 15 - - - - - - - 26.6 1006.3 -
03/03:00am ESE 12 14 - - - - - - - 26.7 1006.3 -
03/02:30am ESE 12 14 - - - - - - - 26.8 1006.3 -
03/02:00am ESE 12 14 - - - - - - - 26.8 1006.5 -
03/01:30am ESE 12 14 - - - - - - - 26.7 1006.6 -
03/01:00am ESE 13 15 - - - - - - - 26.7 1006.7 -
03/12:30am ESE 12 13 - - - - - - - 26.7 1006.8 -
03/12:00am E 12 14 - - - - - - - 26.8 1006.9 -
 
Date/Time
EST
Wind Sea
Height
m
Swell Vis
km
Cloud Weather Temp
°C
Press
MSL
hPa
Rain since
9am
mm
Dir  Spd
kts
Gust
kts
Height
m
Period
s
Dir
02/11:30pm E 13 15 - - - - - - - 26.7 1007.2 -
02/11:00pm E 13 15 - - - - - - - 26.9 1007.2 -
02/10:30pm ESE 14 16 - - - - - - - 26.9 1007.4 -
02/10:00pm ESE 13 15 - - - - - - - 27.0 1007.6 -
02/09:30pm ESE 13 15 - - - - - - - 26.9 1007.4 -
02/09:00pm ESE 11 13 - - - - - - - 26.9 1007.3 -
02/08:30pm ESE 12 14 - - - - - - - 26.9 1007.0 -
02/08:00pm ESE 12 13 - - - - - - - 26.8 1006.8 -
02/07:30pm E 12 14 - - - - - - - 26.8 1006.4 -
02/07:00pm E 13 15 - - - - - - - 26.8 1005.9 -
02/06:30pm E 14 16 - - - - - - - 27.1 1005.8 -
02/06:00pm E 14 16 - - - - - - - 27.2 1005.9 -
02/05:30pm E 15 16 - - - - - - - 26.9 1005.7 -
02/05:00pm E 16 17 - - - - - - - 27.1 1005.6 -
02/04:30pm E 17 19 - - - - - - - 27.3 1005.5 -
02/04:00pm E 15 17 - - - - - - - 27.2 1005.7 -
02/03:30pm E 15 17 - - - - - - - 27.2 1005.8 -
02/03:00pm ESE 16 18 - - - - - - - 27.2 1005.9 -
02/02:30pm ESE 16 18 - - - - - - - 27.2 1006.2 -
02/02:00pm ESE 15 17 - - - - - - - 27.3 1006.6 -
02/01:30pm SE 15 17 - - - - - - - 27.4 1006.8 -
02/01:00pm SE 15 17 - - - - - - - 27.2 1007.1 -
02/12:30pm SE 15 18 - - - - - - - 27.2 1007.3 -
02/12:00pm SE 16 18 - - - - - - - 27.1 1007.5 -
02/11:30am SE 15 17 - - - - - - - 26.8 1007.9 -
02/11:00am SE 15 17 - - - - - - - 27.1 1008.1 -
02/10:30am SE 14 17 - - - - - - - 26.8 1008.3 -
02/10:00am SE 14 17 - - - - - - - 27.0 1008.3 -
02/09:30am SE 15 17 - - - - - - - 27.2 1008.5 -
02/09:00am SSE 15 18 - - - - - - - 26.7 1008.3 -
02/08:30am SE 14 16 - - - - - - - 27.3 1008.2 -
02/08:00am SE 14 16 - - - - - - - 26.9 1008.1 -
02/07:30am SE 14 15 - - - - - - - 26.8 1007.9 -
02/07:00am SE 14 16 - - - - - - - 26.9 1007.6 -
02/06:30am SE 14 16 - - - - - - - 26.8 1007.0 -
02/06:00am SE 11 13 - - - - - - - 26.9 1006.9 -
02/05:30am ESE 11 13 - - - - - - - 26.7 1006.7 -
02/05:00am ESE 14 15 - - - - - - - 26.8 1006.0 -
02/04:30am ESE 13 16 - - - - - - - 26.8 1005.8 -
02/04:00am ESE 16 19 - - - - - - - 26.6 1005.5 -
02/03:30am SE 16 18 - - - - - - - 26.7 1005.3 -
02/03:00am ESE 16 19 - - - - - - - 26.9 1005.5 -

Other formats

Comma delimited format used in spreadsheet applications
http://www.bom.gov.au/fwo/IDQ60701/IDQ60701.94378.axf

JavaScript Object Notation format (JSON) in row-major order
http://www.bom.gov.au/fwo/IDQ60701/IDQ60701.94378.json

Data quality

Most of these data are generated automatically and are frequently updated. Quality checks on data are not normally performed. It is possible for incorrect values to appear. Refer to information at About Latest Weather Observations and please check the disclaimer before using these data.